createdAt,value
2023-05-22T00:00:20.609Z,13.8
2023-05-22T00:01:36.894Z,14.6
2023-05-22T00:02:53.198Z,13.3
2023-05-22T00:04:09.485Z,12
2023-05-22T00:05:25.789Z,13
2023-05-22T00:06:42.068Z,12.4
2023-05-22T00:07:58.363Z,13.5
2023-05-22T00:09:14.671Z,12.3
2023-05-22T00:10:30.966Z,15.5
2023-05-22T00:11:47.253Z,12.5
2023-05-22T00:13:03.547Z,13
2023-05-22T00:14:19.833Z,13.9
2023-05-22T00:15:35.142Z,12.9
2023-05-22T00:16:51.446Z,14.3
2023-05-22T00:18:07.739Z,13
2023-05-22T00:19:24.031Z,13.4
2023-05-22T00:20:40.315Z,12.3
2023-05-22T00:21:56.618Z,11.9
2023-05-22T00:23:12.913Z,12.7
2023-05-22T00:24:29.212Z,14.5
2023-05-22T00:25:45.494Z,13.1
2023-05-22T00:27:01.796Z,13.6
2023-05-22T00:28:18.091Z,13.7
2023-05-22T00:29:34.371Z,14.6
2023-05-22T00:30:50.669Z,15
2023-05-22T00:32:05.986Z,14.5
2023-05-22T00:33:22.279Z,13.5
2023-05-22T00:34:38.568Z,13.7
2023-05-22T00:35:54.855Z,14.1
2023-05-22T00:37:11.153Z,13.3
2023-05-22T00:38:27.445Z,14.1
2023-05-22T00:39:43.739Z,12.4
2023-05-22T00:41:00.027Z,15.1
2023-05-22T00:42:16.322Z,12.4
2023-05-22T00:43:32.623Z,15.1
2023-05-22T00:44:48.921Z,15.8
2023-05-22T00:46:05.221Z,13
2023-05-22T00:47:21.505Z,12.8
2023-05-22T00:48:36.832Z,13.9
2023-05-22T00:49:53.102Z,13.4
2023-05-22T00:51:09.401Z,12.6
2023-05-22T00:52:25.690Z,15.8
2023-05-22T00:53:41.989Z,13.4
2023-05-22T00:54:58.294Z,15.6
2023-05-22T00:56:14.585Z,13.7
2023-05-22T00:57:30.882Z,14
2023-05-22T00:58:47.175Z,12.8
2023-05-22T01:00:03.455Z,14.4
2023-05-22T01:01:19.753Z,13.6
2023-05-22T01:02:36.068Z,14.6
2023-05-22T01:03:52.333Z,13.9
2023-05-22T01:05:07.658Z,15.5
2023-05-22T01:06:23.948Z,14.6
2023-05-22T01:07:40.226Z,13.2
2023-05-22T01:08:56.535Z,13.1
2023-05-22T01:10:12.816Z,13.9
2023-05-22T01:11:29.110Z,14.2
2023-05-22T01:12:45.421Z,13.1
2023-05-22T01:14:01.703Z,13.8
2023-05-22T01:15:18.013Z,14.3
2023-05-22T01:16:34.298Z,13.8
2023-05-22T01:17:50.595Z,13.5
2023-05-22T01:19:06.871Z,13.4
2023-05-22T01:20:23.193Z,12.4
2023-05-22T01:21:38.479Z,13.4
2023-05-22T01:22:54.770Z,12.3
2023-05-22T01:24:11.075Z,14.3
2023-05-22T01:25:27.353Z,12.2
2023-05-22T01:26:43.663Z,14
2023-05-22T01:27:59.952Z,14.6
2023-05-22T01:29:16.246Z,14.1
2023-05-22T01:30:32.543Z,13
2023-05-22T01:31:48.828Z,13.3
2023-05-22T01:33:05.129Z,14.4
2023-05-22T01:34:21.417Z,11.8
2023-05-22T01:35:37.709Z,14.6
2023-05-22T01:36:54.001Z,12.1
2023-05-22T01:38:09.311Z,13.1
2023-05-22T01:39:25.617Z,14.3
2023-05-22T01:40:41.894Z,14.7
2023-05-22T01:41:58.207Z,13.3
2023-05-22T01:43:14.485Z,13.5
2023-05-22T01:44:30.787Z,13.6
2023-05-22T01:45:46.089Z,14.3
2023-05-22T01:47:02.400Z,13.2
2023-05-22T01:48:18.678Z,12.8
2023-05-22T01:49:35.001Z,14.4
2023-05-22T01:50:51.282Z,12.6
2023-05-22T01:52:07.561Z,13.3
2023-05-22T01:53:23.853Z,14.7
2023-05-22T01:54:40.160Z,14.9
2023-05-22T01:55:56.452Z,13.5
2023-05-22T01:57:12.735Z,13.8
2023-05-22T01:58:29.043Z,12.7
2023-05-22T01:59:45.317Z,16.4
2023-05-22T02:01:01.616Z,13.3
2023-05-22T02:02:16.927Z,12.5
2023-05-22T02:03:33.214Z,12.2
2023-05-22T02:04:49.538Z,13.3
2023-05-22T02:06:05.812Z,12.3
2023-05-22T02:07:22.120Z,14.1
2023-05-22T02:08:38.398Z,13.2
2023-05-22T02:09:54.710Z,15
2023-05-22T02:11:10.999Z,12.7
2023-05-22T02:12:27.296Z,12.8
2023-05-22T02:13:43.567Z,11.9
2023-05-22T02:14:59.867Z,13.6
2023-05-22T02:16:16.170Z,15.7
2023-05-22T02:17:32.463Z,12.7
2023-05-22T02:18:47.765Z,14
2023-05-22T02:20:04.054Z,12.4
2023-05-22T02:21:20.361Z,14.1
2023-05-22T02:22:36.637Z,12.8
2023-05-22T02:23:52.945Z,12.2
2023-05-22T02:25:09.226Z,14.3
2023-05-22T02:26:25.526Z,14.6
2023-05-22T02:27:41.822Z,12.2
2023-05-22T02:28:58.106Z,15.1
2023-05-22T02:30:14.414Z,15.4
2023-05-22T02:31:30.698Z,12.9
2023-05-22T02:32:46.993Z,13.2
2023-05-22T02:34:03.309Z,13.5
2023-05-22T02:35:18.557Z,13.8
2023-05-22T02:36:34.860Z,14.4
2023-05-22T02:37:51.132Z,11.9
2023-05-22T02:39:07.377Z,14.2
2023-05-22T02:40:23.629Z,12.4
2023-05-22T02:41:39.865Z,12.8
2023-05-22T02:42:56.093Z,13.9
2023-05-22T02:44:12.354Z,13.8
2023-05-22T02:45:28.600Z,13.3
2023-05-22T02:46:44.832Z,13.8
2023-05-22T02:48:01.000Z,14.1
2023-05-22T02:49:17.329Z,13.9
2023-05-22T02:50:33.567Z,13
2023-05-22T02:51:49.911Z,13.7
2023-05-22T02:53:06.140Z,13.9
2023-05-22T02:54:22.384Z,13.4
2023-05-22T02:55:38.636Z,13.8
2023-05-22T02:56:54.887Z,12.5
2023-05-22T02:58:11.121Z,13.5
2023-05-22T02:59:27.342Z,14.3
2023-05-22T03:00:43.581Z,13.4
2023-05-22T03:01:59.828Z,15.2
2023-05-22T03:03:16.058Z,13.7
2023-05-22T03:04:32.308Z,12.9
2023-05-22T03:05:48.557Z,13.4
2023-05-22T03:07:04.789Z,13.1
2023-05-22T03:08:20.061Z,14.4
2023-05-22T03:09:36.272Z,12.9
2023-05-22T03:10:52.528Z,13.6
2023-05-22T03:12:08.751Z,15.7
2023-05-22T03:13:25.003Z,11.7
2023-05-22T03:14:41.240Z,12.1
2023-05-22T03:15:57.480Z,13.3
2023-05-22T03:17:13.721Z,13.9
2023-05-22T03:18:29.958Z,11.7
2023-05-22T03:19:46.208Z,13.3
2023-05-22T03:21:02.447Z,14.3
2023-05-22T03:22:18.677Z,14.5
2023-05-22T03:23:34.911Z,13.1
2023-05-22T03:24:50.171Z,15.2
2023-05-22T03:26:06.413Z,13.3
2023-05-22T03:27:22.664Z,14.5
2023-05-22T03:28:38.898Z,12.8
2023-05-22T03:29:55.155Z,13.4
2023-05-22T03:31:11.373Z,13.7
2023-05-22T03:32:27.605Z,12.6
2023-05-22T03:33:43.858Z,12
2023-05-22T03:35:00.109Z,13.7
2023-05-22T03:36:16.342Z,13
2023-05-22T03:37:32.603Z,13.9
2023-05-22T03:38:48.804Z,15.1
2023-05-22T03:40:05.062Z,14.3
2023-05-22T03:41:20.314Z,14
2023-05-22T03:42:36.555Z,14.1
2023-05-22T03:43:52.785Z,14.4
2023-05-22T03:45:09.043Z,12.4
2023-05-22T03:46:25.260Z,13.5
2023-05-22T03:47:41.505Z,12.9
2023-05-22T03:48:57.737Z,13.3
2023-05-22T03:50:13.998Z,13.3
2023-05-22T03:51:30.230Z,14.7
2023-05-22T03:52:46.455Z,12.7
2023-05-22T03:54:02.695Z,13.2
2023-05-22T03:55:18.967Z,12
2023-05-22T03:56:35.180Z,12.4
2023-05-22T03:57:50.448Z,13.2
2023-05-22T03:59:06.698Z,11.6
2023-05-22T04:00:22.911Z,13
2023-05-22T04:01:39.172Z,13.1
2023-05-22T04:02:55.388Z,13.5
2023-05-22T04:04:11.658Z,13.2
2023-05-22T04:05:27.889Z,13.1
2023-05-22T04:06:44.143Z,11.8
2023-05-22T04:08:00.369Z,12.4
2023-05-22T04:09:16.624Z,12.6
2023-05-22T04:10:32.847Z,12.6
2023-05-22T04:11:49.076Z,12.9
2023-05-22T04:13:05.321Z,11.7
2023-05-22T04:14:20.580Z,13.4
2023-05-22T04:15:36.813Z,13.5
2023-05-22T04:16:53.042Z,11.6
2023-05-22T04:18:09.306Z,12.4
2023-05-22T04:19:25.522Z,14.6
2023-05-22T04:20:41.771Z,11.9
2023-05-22T04:21:58.018Z,12.7
2023-05-22T04:23:14.242Z,13.4
2023-05-22T04:24:30.494Z,12.7
2023-05-22T04:25:46.724Z,14.1
2023-05-22T04:27:02.981Z,11.9
2023-05-22T04:28:19.214Z,12.1
2023-05-22T04:29:35.445Z,13.1
2023-05-22T04:30:50.718Z,13.5
2023-05-22T04:32:06.933Z,14.7
2023-05-22T04:33:23.174Z,12.3
2023-05-22T04:34:39.418Z,12
2023-05-22T04:35:55.677Z,13.9
2023-05-22T04:37:11.894Z,12.8
2023-05-22T04:38:28.161Z,12.5
2023-05-22T04:39:44.390Z,13
2023-05-22T04:41:00.625Z,11.5
2023-05-22T04:42:16.861Z,13
2023-05-22T04:43:33.124Z,11.9
2023-05-22T04:44:49.348Z,11.9
2023-05-22T04:46:05.595Z,11
2023-05-22T04:47:20.827Z,9.9
2023-05-22T04:48:37.089Z,12
2023-05-22T04:49:53.315Z,13.6
2023-05-22T04:51:09.548Z,13.3
2023-05-22T04:52:25.798Z,13.3
2023-05-22T04:53:42.034Z,12.9
2023-05-22T04:54:58.278Z,13.6
2023-05-22T04:56:14.517Z,12.3
2023-05-22T04:57:30.753Z,13.2
2023-05-22T04:58:46.991Z,13.8
2023-05-22T05:00:03.251Z,10.6
2023-05-22T05:01:19.480Z,12
2023-05-22T05:02:35.736Z,12.8
2023-05-22T05:03:50.960Z,11.9
2023-05-22T05:05:07.203Z,12
2023-05-22T05:06:23.476Z,11.9
2023-05-22T05:07:39.703Z,12.8
2023-05-22T05:10:12.161Z,12.2
2023-05-22T05:11:28.401Z,12.3
2023-05-22T05:12:44.641Z,11.3
2023-05-22T05:14:00.881Z,11.8
2023-05-22T05:15:17.129Z,13.1
2023-05-22T05:16:33.357Z,12.4
2023-05-22T05:17:49.598Z,12.5
2023-05-22T05:19:05.844Z,11.7
2023-05-22T05:20:21.093Z,11.9
2023-05-22T05:21:37.361Z,12.6
2023-05-22T05:22:53.571Z,12.1
2023-05-22T05:24:09.814Z,11.8
2023-05-22T05:25:26.067Z,10.6
2023-05-22T05:26:42.305Z,12.7
2023-05-22T05:27:58.534Z,10.6
2023-05-22T05:29:14.803Z,12.7
2023-05-22T05:30:31.019Z,12.3
2023-05-22T05:31:47.281Z,11.7
2023-05-22T05:33:03.491Z,11
2023-05-22T05:34:19.733Z,10.7
2023-05-22T05:35:35.979Z,9.9
2023-05-22T05:36:51.242Z,10.8
2023-05-22T05:38:07.493Z,11.2
2023-05-22T05:39:23.730Z,11
2023-05-22T05:40:39.950Z,11.1
2023-05-22T05:41:56.195Z,11.9
2023-05-22T05:43:12.429Z,14.2
2023-05-22T05:44:28.693Z,11.5
2023-05-22T05:45:44.919Z,11.3
2023-05-22T05:47:01.160Z,11.4
2023-05-22T05:48:17.389Z,11.9
2023-05-22T05:49:33.629Z,12.4
2023-05-22T05:52:06.105Z,13
2023-05-22T05:53:21.374Z,10.4
2023-05-22T05:54:37.612Z,11.1
2023-05-22T05:55:53.836Z,12.1
2023-05-22T05:57:10.108Z,9.9
2023-05-22T05:58:26.326Z,11.2
2023-05-22T05:59:42.565Z,10.9
2023-05-22T06:00:57.818Z,10.5
2023-05-22T06:02:14.065Z,11
2023-05-22T06:03:30.306Z,11.1
2023-05-22T06:04:46.574Z,11.2
2023-05-22T06:06:02.789Z,12.4
2023-05-22T06:07:19.025Z,13.1
2023-05-22T06:08:35.254Z,10.3
2023-05-22T06:09:51.494Z,12.2
2023-05-22T06:11:07.735Z,10.4
2023-05-22T06:12:23.978Z,12.4
2023-05-22T06:13:40.246Z,10.9
2023-05-22T06:14:56.495Z,11.5
2023-05-22T06:16:12.693Z,13.6
2023-05-22T06:17:27.963Z,11.6
2023-05-22T06:18:44.189Z,12.4
2023-05-22T06:20:00.437Z,10.7
2023-05-22T06:21:16.675Z,11.5
2023-05-22T06:22:32.937Z,9.3
2023-05-22T06:23:49.148Z,10.7
2023-05-22T06:25:05.397Z,10.5
2023-05-22T06:26:21.644Z,10.9
2023-05-22T06:27:37.872Z,11.2
2023-05-22T06:28:54.115Z,11.4
2023-05-22T06:30:10.347Z,9.9
2023-05-22T06:31:26.605Z,11.4
2023-05-22T06:32:42.834Z,9.8
2023-05-22T06:33:58.091Z,10.7
2023-05-22T06:35:14.327Z,10.3
2023-05-22T06:36:30.575Z,10.6
2023-05-22T06:37:46.812Z,10.2
2023-05-22T06:39:03.062Z,9.5
2023-05-22T06:40:19.313Z,9.9
2023-05-22T06:41:35.555Z,11.4
2023-05-22T06:42:51.770Z,10.1
2023-05-22T06:44:08.016Z,12.5
2023-05-22T06:45:24.247Z,9.2
2023-05-22T06:46:40.490Z,11.6
2023-05-22T06:47:56.751Z,10.5
2023-05-22T06:49:12.969Z,9.5
2023-05-22T06:50:28.226Z,12.2
2023-05-22T06:51:44.467Z,8.9
2023-05-22T06:53:00.729Z,11.1
2023-05-22T06:54:16.937Z,10.3
2023-05-22T06:55:33.178Z,9.9
2023-05-22T06:56:49.430Z,10.3
2023-05-22T06:58:05.694Z,10.8
2023-05-22T06:59:21.901Z,10.6
2023-05-22T07:00:38.144Z,10
2023-05-22T07:01:54.390Z,9.9
2023-05-22T07:04:26.885Z,9.9
2023-05-22T07:05:43.096Z,11.4
2023-05-22T07:06:58.362Z,12.3
2023-05-22T07:08:14.606Z,9.4
2023-05-22T07:09:30.864Z,11.2
2023-05-22T07:10:47.076Z,9.2
2023-05-22T07:12:03.325Z,9.8
2023-05-22T07:13:19.562Z,9.9
2023-05-22T07:14:35.801Z,11
2023-05-22T07:15:52.030Z,10.1
2023-05-22T07:17:08.273Z,9.2
2023-05-22T07:18:24.540Z,9.4
2023-05-22T07:19:40.748Z,9.8
2023-05-22T07:20:57.001Z,10.9
2023-05-22T07:22:13.236Z,10
2023-05-22T07:23:28.521Z,10.3
2023-05-22T07:24:44.733Z,9
2023-05-22T07:26:00.996Z,10.2
2023-05-22T07:27:17.216Z,9.7
2023-05-22T07:28:33.447Z,10.7
2023-05-22T07:29:49.686Z,10.3
2023-05-22T07:31:05.964Z,9.9
2023-05-22T07:32:22.180Z,8.3
2023-05-22T07:33:38.409Z,10.1
2023-05-22T07:34:54.660Z,11.1
2023-05-22T07:36:10.899Z,9.8
2023-05-22T07:37:27.129Z,8.5
2023-05-22T07:38:43.365Z,11.4
2023-05-22T07:39:58.626Z,9.7
2023-05-22T07:41:14.891Z,9.1
2023-05-22T07:42:31.115Z,7.7
2023-05-22T07:43:47.345Z,9.1
2023-05-22T07:45:03.589Z,10.3
2023-05-22T07:46:19.820Z,10.9
2023-05-22T07:47:36.093Z,10.1
2023-05-22T07:48:52.305Z,9
2023-05-22T07:50:08.557Z,8.5
2023-05-22T07:51:24.785Z,8.9
2023-05-22T07:52:41.058Z,9.4
2023-05-22T07:53:57.270Z,8.5
2023-05-22T07:55:13.512Z,9.6
2023-05-22T07:56:28.761Z,8.1
2023-05-22T07:57:45.002Z,8.4
2023-05-22T07:59:01.249Z,9.3
2023-05-22T08:00:17.489Z,8.2
2023-05-22T08:01:33.727Z,8.2
2023-05-22T08:02:49.957Z,8.7
2023-05-22T08:04:06.195Z,9.4
2023-05-22T08:05:22.441Z,7.6
2023-05-22T08:06:38.678Z,10.2
2023-05-22T08:07:54.921Z,10.2
2023-05-22T08:09:11.158Z,8
2023-05-22T08:10:27.408Z,9.5
2023-05-22T08:11:43.644Z,9.4
2023-05-22T08:12:58.897Z,8.1
2023-05-22T08:14:15.141Z,8.2
2023-05-22T08:15:31.371Z,10.6
2023-05-22T08:16:47.613Z,7.6
2023-05-22T08:18:03.866Z,9.3
2023-05-22T08:19:20.089Z,9.8
2023-05-22T08:20:36.325Z,9.2
2023-05-22T08:21:52.572Z,8.7
2023-05-22T08:23:08.807Z,7
2023-05-22T08:24:25.044Z,8.5
2023-05-22T08:25:41.297Z,8.8
2023-05-22T08:26:57.541Z,8
2023-05-22T08:28:13.798Z,7.8
2023-05-22T08:29:29.028Z,9.2
2023-05-22T08:30:45.265Z,8.2
2023-05-22T08:32:01.513Z,7.7
2023-05-22T08:33:17.742Z,8.3
2023-05-22T08:34:33.982Z,9.8
2023-05-22T08:35:50.223Z,8.7
2023-05-22T08:37:06.457Z,8.8
2023-05-22T08:38:22.709Z,9.3
2023-05-22T08:39:38.953Z,8.8
2023-05-22T08:40:55.177Z,8.3
2023-05-22T08:42:11.432Z,8.2
2023-05-22T08:43:27.668Z,9.3
2023-05-22T08:44:43.902Z,11.2
2023-05-22T08:45:59.162Z,10.7
2023-05-22T08:47:15.425Z,10.3
2023-05-22T08:48:31.637Z,7.5
2023-05-22T08:49:47.876Z,10.5
2023-05-22T08:51:04.119Z,8.4
2023-05-22T08:52:20.363Z,7.6
2023-05-22T08:53:36.594Z,9.9
2023-05-22T08:54:52.866Z,8.7
2023-05-22T08:56:09.076Z,9
2023-05-22T08:57:25.322Z,9.9
2023-05-22T08:58:41.555Z,9.2
2023-05-22T08:59:57.794Z,7.3
2023-05-22T09:01:14.040Z,9.1
2023-05-22T09:02:29.302Z,7.8
2023-05-22T09:03:45.526Z,19.6
2023-05-22T09:05:01.799Z,8.4
2023-05-22T09:06:18.012Z,7.9
2023-05-22T09:07:34.278Z,7.5
2023-05-22T09:08:50.484Z,9
2023-05-22T09:10:06.735Z,7.8
2023-05-22T09:11:22.980Z,8
2023-05-22T09:12:39.200Z,8.1
2023-05-22T09:13:55.448Z,7.7
2023-05-22T09:15:11.683Z,7.1
2023-05-22T09:16:27.923Z,9.7
2023-05-22T09:17:44.168Z,9.3
2023-05-22T09:20:15.656Z,7.6
2023-05-22T09:21:31.896Z,7.2
2023-05-22T09:22:48.179Z,7.3
2023-05-22T09:24:04.382Z,9.9
2023-05-22T09:25:20.630Z,7.6
2023-05-22T09:26:36.858Z,9
2023-05-22T09:27:53.103Z,6.9
2023-05-22T09:29:09.354Z,9.5
2023-05-22T09:30:25.625Z,8.8
2023-05-22T09:31:41.866Z,7.2
2023-05-22T09:32:58.095Z,8.2
2023-05-22T09:34:14.304Z,9
2023-05-22T09:35:29.549Z,15
2023-05-22T09:36:45.827Z,9.4
2023-05-22T09:38:02.039Z,10.1
2023-05-22T09:39:18.268Z,9.4
2023-05-22T09:40:34.524Z,8.1
2023-05-22T09:41:50.748Z,9.1
2023-05-22T09:43:06.997Z,7.1
2023-05-22T09:44:23.278Z,8.5
2023-05-22T09:45:39.471Z,9.1
2023-05-22T09:48:11.967Z,7.4
2023-05-22T09:49:28.207Z,8.1
2023-05-22T09:50:44.441Z,8.4
2023-05-22T09:51:59.687Z,8.3
2023-05-22T09:53:15.934Z,8
2023-05-22T09:54:32.180Z,9
2023-05-22T09:55:48.416Z,10.1
2023-05-22T09:57:04.656Z,8.6
2023-05-22T09:58:20.897Z,8.9
2023-05-22T09:59:37.133Z,8.4
2023-05-22T10:00:53.382Z,7.7
2023-05-22T10:02:09.605Z,10
2023-05-22T10:03:25.890Z,8.8
2023-05-22T10:04:42.090Z,9.7
2023-05-22T10:05:58.334Z,9.1
2023-05-22T10:07:14.567Z,8.9
2023-05-22T10:08:29.858Z,8.9
2023-05-22T10:09:46.078Z,6.5
2023-05-22T10:11:02.310Z,7.2
2023-05-22T10:12:18.545Z,8.5
2023-05-22T10:13:34.786Z,12.2
2023-05-22T10:14:51.027Z,10.2
2023-05-22T10:16:07.428Z,9
2023-05-22T10:17:23.634Z,6.9
2023-05-22T10:18:39.871Z,8.6
2023-05-22T10:19:56.149Z,8.6
2023-05-22T10:21:12.363Z,7
2023-05-22T10:22:28.591Z,8.2
2023-05-22T10:23:44.875Z,9.6
2023-05-22T10:25:01.063Z,7.7
2023-05-22T10:26:17.320Z,7.1
2023-05-22T10:27:33.546Z,8.2
2023-05-22T10:28:49.788Z,9.4
2023-05-22T10:30:06.036Z,9.8
2023-05-22T10:31:22.269Z,9
2023-05-22T10:32:37.536Z,8.1
2023-05-22T10:33:53.773Z,7.2
2023-05-22T10:35:10.005Z,7.4
2023-05-22T10:36:26.258Z,8.4
2023-05-22T10:37:42.480Z,7.5
2023-05-22T10:38:58.757Z,7.5
2023-05-22T10:40:14.972Z,7.2
2023-05-22T10:41:31.215Z,6.9
2023-05-22T10:42:47.438Z,9.6
2023-05-22T10:44:03.689Z,6.7
2023-05-22T10:45:19.927Z,6.4
2023-05-22T10:46:36.173Z,9
2023-05-22T10:47:52.411Z,7.2
2023-05-22T10:49:07.667Z,9
2023-05-22T10:51:40.144Z,7.2
2023-05-22T10:54:12.627Z,8.6
2023-05-22T10:55:28.867Z,7.9
2023-05-22T10:56:45.136Z,8.5
2023-05-22T10:58:01.346Z,7.7
2023-05-22T10:59:17.590Z,9.3
2023-05-22T11:00:33.812Z,8.4
2023-05-22T11:01:50.067Z,9.7
2023-05-22T11:03:06.310Z,7.8
2023-05-22T11:04:22.588Z,7.8
2023-05-22T11:05:38.773Z,13
2023-05-22T11:06:55.145Z,7.4
2023-05-22T11:08:11.387Z,7.5
2023-05-22T11:09:27.620Z,9.4
2023-05-22T11:10:43.852Z,9.1
2023-05-22T11:12:00.137Z,8.8
2023-05-22T11:13:16.342Z,6.5
2023-05-22T11:14:32.577Z,7.5
2023-05-22T11:15:48.824Z,6.6
2023-05-22T11:17:05.049Z,7.3
2023-05-22T11:18:21.300Z,7.5
2023-05-22T11:19:37.528Z,9.2
2023-05-22T11:20:53.771Z,7.7
2023-05-22T11:22:10.024Z,7.6
2023-05-22T11:23:25.272Z,8.9
2023-05-22T11:24:41.522Z,7.4
2023-05-22T11:25:57.753Z,7.7
2023-05-22T11:27:13.995Z,11.3
2023-05-22T11:28:30.227Z,9.9
2023-05-22T11:29:46.475Z,8.1
2023-05-22T11:31:02.722Z,15.2
2023-05-22T11:32:18.955Z,7.9
2023-05-22T11:33:35.193Z,6.1
2023-05-22T11:34:51.427Z,8.9
2023-05-22T11:36:07.679Z,6.5
2023-05-22T11:37:23.913Z,7.3
2023-05-22T11:38:40.147Z,7.9
2023-05-22T11:39:55.448Z,7
2023-05-22T11:41:11.647Z,6.6
2023-05-22T11:42:27.919Z,10.4
2023-05-22T11:43:44.123Z,8.9
2023-05-22T11:45:00.361Z,12.1
2023-05-22T11:46:16.606Z,11.2
2023-05-22T11:48:49.083Z,8
2023-05-22T11:50:05.326Z,10
2023-05-22T11:51:21.613Z,7.2
2023-05-22T11:52:37.807Z,6.4
2023-05-22T11:53:54.046Z,9
2023-05-22T11:55:10.277Z,7
2023-05-22T11:56:25.542Z,6.4
2023-05-22T11:57:41.775Z,6.5
2023-05-22T11:58:58.059Z,6.4
2023-05-22T12:00:14.251Z,6.3
2023-05-22T12:01:30.539Z,9.2
2023-05-22T12:02:46.733Z,7.5
2023-05-22T12:05:19.228Z,7.2
2023-05-22T12:06:35.448Z,7.5
2023-05-22T12:07:51.694Z,10.6
2023-05-22T12:09:07.930Z,7.1
2023-05-22T12:10:24.168Z,6.7
2023-05-22T12:11:40.410Z,7.5
2023-05-22T12:12:55.673Z,6.9
2023-05-22T12:14:11.918Z,7.5
2023-05-22T12:15:28.191Z,7.9
2023-05-22T12:16:44.398Z,8.7
2023-05-22T12:18:00.625Z,8.3
2023-05-22T12:19:16.874Z,6.5
2023-05-22T12:20:33.116Z,6.8
2023-05-22T12:21:49.357Z,7.2
2023-05-22T12:23:05.603Z,10.6
2023-05-22T12:24:21.835Z,6.8
2023-05-22T12:25:38.110Z,7.3
2023-05-22T12:26:54.303Z,10.9
2023-05-22T12:28:10.551Z,8.4
2023-05-22T12:29:25.803Z,7.2
2023-05-22T12:30:42.043Z,6.8
2023-05-22T12:31:58.282Z,8.6
2023-05-22T12:33:14.525Z,9.3
2023-05-22T12:34:30.776Z,7.9
2023-05-22T12:35:47.013Z,6.8
2023-05-22T12:37:03.244Z,8.1
2023-05-22T12:38:19.477Z,7.5
2023-05-22T12:39:35.729Z,9.6
2023-05-22T12:40:52.004Z,7.6
2023-05-22T12:42:08.195Z,7.3
2023-05-22T12:43:24.450Z,7.8
2023-05-22T12:44:40.677Z,8.3
2023-05-22T12:45:55.944Z,6.4
2023-05-22T12:47:12.186Z,6.6
2023-05-22T12:48:28.419Z,20.1
2023-05-22T12:49:44.697Z,7.2
2023-05-22T12:51:00.891Z,7.3
2023-05-22T12:52:17.126Z,8.4
2023-05-22T12:53:33.375Z,7.7
2023-05-22T12:54:49.626Z,6.6
2023-05-22T12:56:05.000Z,6.8
2023-05-22T12:57:22.000Z,7.9
2023-05-22T12:58:38.345Z,6.9
2023-05-22T12:59:54.576Z,5.9
2023-05-22T13:01:10.823Z,7.5
2023-05-22T13:02:26.115Z,7.5
2023-05-22T13:03:42.313Z,8.3
2023-05-22T13:04:58.556Z,8.2
2023-05-22T13:06:14.785Z,7.2
2023-05-22T13:07:31.030Z,5.6
2023-05-22T13:08:47.275Z,6.3
2023-05-22T13:10:03.510Z,8.7
2023-05-22T13:11:19.743Z,7.2
2023-05-22T13:12:35.983Z,5.9
2023-05-22T13:13:52.233Z,8.5
2023-05-22T13:15:08.458Z,7.9
2023-05-22T13:16:24.700Z,7
2023-05-22T13:17:40.946Z,10.7
2023-05-22T13:18:56.205Z,7.7
2023-05-22T13:20:12.432Z,7.7
2023-05-22T13:21:28.687Z,8
2023-05-22T13:22:44.929Z,7.1
2023-05-22T13:24:01.154Z,6.2
2023-05-22T13:25:17.402Z,7.4
2023-05-22T13:26:33.641Z,6.9
2023-05-22T13:27:49.876Z,7.3
2023-05-22T13:29:06.110Z,7.2
2023-05-22T13:30:22.395Z,7.8
2023-05-22T13:31:38.592Z,7.6
2023-05-22T13:32:54.834Z,5.7
2023-05-22T13:34:11.086Z,7.3
2023-05-22T13:35:26.322Z,6.9
2023-05-22T13:36:42.566Z,6.1
2023-05-22T13:37:58.812Z,6.9
2023-05-22T13:39:15.048Z,5.9
2023-05-22T13:40:31.294Z,9.3
2023-05-22T13:41:47.529Z,6
2023-05-22T13:43:03.764Z,6.3
2023-05-22T13:44:20.005Z,8
2023-05-22T13:45:36.257Z,8.9
2023-05-22T13:46:52.492Z,8.4
2023-05-22T13:48:08.730Z,6.3
2023-05-22T13:49:24.972Z,6.3
2023-05-22T13:50:41.208Z,6.8
2023-05-22T13:51:56.467Z,5.2
2023-05-22T13:53:12.746Z,6.7
2023-05-22T13:54:28.937Z,5.3
2023-05-22T13:55:45.176Z,5.4
2023-05-22T13:57:01.415Z,7.7
2023-05-22T13:58:17.652Z,6.6
2023-05-22T13:59:33.946Z,5.8
2023-05-22T14:00:50.151Z,5.4
2023-05-22T14:02:06.389Z,6
2023-05-22T14:03:22.622Z,7.9
2023-05-22T14:04:38.858Z,7
2023-05-22T14:05:55.107Z,7.1
2023-05-22T14:07:11.385Z,5.6
2023-05-22T14:08:26.585Z,7.9
2023-05-22T14:09:42.834Z,7.2
2023-05-22T14:10:59.072Z,6.6
2023-05-22T14:12:15.313Z,6.5
2023-05-22T14:13:31.558Z,6.3
2023-05-22T14:14:47.784Z,6.1
2023-05-22T14:16:04.041Z,6.7
2023-05-22T14:17:20.277Z,6.8
2023-05-22T14:18:36.515Z,7.7
2023-05-22T14:19:52.744Z,6.9
2023-05-22T14:21:08.990Z,7.2
2023-05-22T14:22:25.227Z,5.6
2023-05-22T14:23:41.462Z,5.9
2023-05-22T14:24:56.721Z,5.9
2023-05-22T14:26:12.959Z,6.3
2023-05-22T14:27:29.204Z,5.7
2023-05-22T14:28:45.456Z,5.2
2023-05-22T14:30:01.682Z,5.5
2023-05-22T14:31:16.943Z,9.1
2023-05-22T14:32:33.195Z,6.8
2023-05-22T14:33:49.421Z,5.2
2023-05-22T14:35:05.669Z,6.8
2023-05-22T14:36:21.913Z,5.6
2023-05-22T14:37:38.150Z,6.9
2023-05-22T14:38:54.386Z,5
2023-05-22T14:40:10.621Z,5.9
2023-05-22T14:41:26.874Z,5.4
2023-05-22T14:42:43.114Z,5.4
2023-05-22T14:43:59.334Z,7.2
2023-05-22T14:45:15.575Z,6
2023-05-22T14:46:31.833Z,5.9
2023-05-22T14:47:47.088Z,6.3
2023-05-22T14:49:03.312Z,5.2
2023-05-22T14:50:19.551Z,9.2
2023-05-22T14:51:35.791Z,6.3
2023-05-22T14:52:52.032Z,4.6
2023-05-22T14:54:08.269Z,5.8
2023-05-22T14:55:24.524Z,6.1
2023-05-22T14:56:40.817Z,8.3
2023-05-22T14:57:57.041Z,6.1
2023-05-22T14:59:13.231Z,5.4
2023-05-22T15:00:29.526Z,5.4
2023-05-22T15:01:45.721Z,6
2023-05-22T15:03:01.964Z,7.8
2023-05-22T15:04:17.218Z,6
2023-05-22T15:05:33.441Z,7.2
2023-05-22T15:06:49.687Z,6.2
2023-05-22T15:08:05.924Z,5.3
2023-05-22T15:09:22.165Z,5.5
2023-05-22T15:10:38.406Z,6.4
2023-05-22T15:11:54.654Z,5.2
2023-05-22T15:13:10.891Z,6
2023-05-22T15:14:27.132Z,6.6
2023-05-22T15:15:43.416Z,5.2
2023-05-22T15:16:59.606Z,6
2023-05-22T15:18:15.840Z,5.6
2023-05-22T15:19:32.093Z,5.1
2023-05-22T15:20:47.339Z,5.8
2023-05-22T15:22:03.583Z,5.4
2023-05-22T15:23:19.822Z,5.2
2023-05-22T15:24:36.057Z,6
2023-05-22T15:25:52.304Z,4.8
2023-05-22T15:27:08.589Z,6.9
2023-05-22T15:28:24.793Z,5.3
2023-05-22T15:29:41.020Z,5.1
2023-05-22T15:30:57.266Z,5.6
2023-05-22T15:32:13.496Z,5.4
2023-05-22T15:33:29.751Z,5.6
2023-05-22T15:34:45.972Z,6.4
2023-05-22T15:36:02.219Z,6.9
2023-05-22T15:37:17.471Z,9.2
2023-05-22T15:38:33.722Z,5
2023-05-22T15:39:50.012Z,6.5
2023-05-22T15:41:06.201Z,6.5
2023-05-22T15:42:22.495Z,5.5
2023-05-22T15:43:38.672Z,5.3
2023-05-22T15:44:54.916Z,9.5
2023-05-22T15:46:11.159Z,5.9
2023-05-22T15:47:27.405Z,5.6
2023-05-22T15:48:43.641Z,5.2
2023-05-22T15:49:59.869Z,6.2
2023-05-22T15:51:16.104Z,5.2
2023-05-22T15:52:32.354Z,8.4
2023-05-22T15:53:47.614Z,6
2023-05-22T15:55:03.858Z,6.6
2023-05-22T15:56:20.092Z,6.4
2023-05-22T15:57:36.374Z,8.3
2023-05-22T15:58:52.577Z,5.8
2023-05-22T16:00:08.000Z,6.2
2023-05-22T16:01:25.045Z,6.5
2023-05-22T16:02:41.278Z,7.1
2023-05-22T16:03:57.536Z,7.8
2023-05-22T16:05:13.769Z,6.8
2023-05-22T16:06:30.005Z,5.7
2023-05-22T16:07:46.241Z,5.9
2023-05-22T16:09:02.489Z,6.7
2023-05-22T16:10:17.803Z,5.8
2023-05-22T16:11:33.980Z,6.5
2023-05-22T16:12:50.218Z,11.3
2023-05-22T16:14:06.461Z,5.6
2023-05-22T16:15:22.692Z,5.4
2023-05-22T16:16:38.935Z,4.7
2023-05-22T16:17:55.178Z,7.3
2023-05-22T16:19:11.427Z,7.9
2023-05-22T16:20:27.673Z,6.8
2023-05-22T16:21:43.910Z,7.2
2023-05-22T16:23:00.132Z,7.7
2023-05-22T16:24:16.379Z,7.2
2023-05-22T16:25:32.615Z,7
2023-05-22T16:26:47.875Z,5.5
2023-05-22T16:28:04.125Z,7.5
2023-05-22T16:29:20.356Z,7.1
2023-05-22T16:30:36.595Z,9.1
2023-05-22T16:31:52.832Z,6.9
2023-05-22T16:33:09.123Z,10.5
2023-05-22T16:34:25.317Z,8.5
2023-05-22T16:35:41.561Z,6.5
2023-05-22T16:36:57.797Z,6.3
2023-05-22T16:38:14.027Z,6.1
2023-05-22T16:39:30.318Z,6.1
2023-05-22T16:40:46.512Z,7.2
2023-05-22T16:42:02.748Z,7.3
2023-05-22T16:43:18.018Z,7.5
2023-05-22T16:44:34.237Z,5.7
2023-05-22T16:45:50.492Z,7.5
2023-05-22T16:47:06.722Z,7
2023-05-22T16:48:23.025Z,6.7
2023-05-22T16:49:39.196Z,6
2023-05-22T16:50:55.448Z,7.7
2023-05-22T16:52:11.676Z,6.9
2023-05-22T16:54:44.166Z,10
2023-05-22T16:56:00.405Z,7.3
2023-05-22T16:57:16.703Z,6.4
2023-05-22T16:58:32.883Z,7.2
2023-05-22T16:59:48.139Z,6.5
2023-05-22T17:01:04.373Z,8
2023-05-22T17:02:20.620Z,8.6
2023-05-22T17:03:36.868Z,7.1
2023-05-22T17:04:53.092Z,8.3
2023-05-22T17:06:09.340Z,6.2
2023-05-22T17:07:25.626Z,8.1
2023-05-22T17:08:41.824Z,5.9
2023-05-22T17:09:58.046Z,8
2023-05-22T17:11:14.292Z,7.9
2023-05-22T17:12:30.533Z,7.2
2023-05-22T17:13:46.782Z,5.8
2023-05-22T17:15:03.020Z,6.6
2023-05-22T17:16:18.276Z,7.1
2023-05-22T17:17:34.514Z,8.3
2023-05-22T17:18:50.756Z,5.8
2023-05-22T17:20:07.038Z,6.3
2023-05-22T17:21:23.224Z,8.9
2023-05-22T17:22:39.463Z,7.8
2023-05-22T17:23:55.718Z,6
2023-05-22T17:25:11.941Z,7.1
2023-05-22T17:26:28.181Z,6.2
2023-05-22T17:27:44.426Z,5.7
2023-05-22T17:29:00.000Z,6.9
2023-05-22T17:30:16.897Z,6
2023-05-22T17:31:33.141Z,7.5